Time;durP1;ratioP1;P1;durP2;ratioP2;P2;SDS_P1;SDS_P2;PMS_P1;PMS_P2;Temp;Humidity;BMP_temperature;BMP_pressure;BME280_temperature;BME280_humidity;BME280_pressure;Samples;Min_cycle;Max_cycle;Signal;HPM_P1;HPM_P2
2023/04/02 00:00:36;;;;;;;30.80;16.00;;;;;;;-128.00;-1.00;-1.00;18490;288;7504519;-35
2023/04/02 00:03:04;;;;;;;33.30;11.40;;;;;;;-128.00;-1.00;-1.00;18489;296;7505953;-33
2023/04/02 00:05:49;;;;;;;25.60;13.00;;;;;;;-128.00;-1.00;-1.00;18442;323;7506407;-33
2023/04/02 00:08:20;;;;;;;24.50;12.30;;;;;;;-128.00;-1.00;-1.00;18489;348;7505112;-35
2023/04/02 00:10:48;;;;;;;27.80;13.60;;;;;;;-128.00;-1.00;-1.00;18459;299;7506546;-36
2023/04/02 00:13:28;;;;;;;26.30;14.10;;;;;;;-128.00;-1.00;-1.00;18462;288;7504558;-35
2023/04/02 00:15:56;;;;;;;23.70;14.10;;;;;;;-128.00;-1.00;-1.00;18467;296;7504827;-33
2023/04/02 00:18:22;;;;;;;24.10;9.70;;;;;;;-128.00;-1.00;-1.00;18453;296;7504993;-35
2023/04/02 00:20:51;;;;;;;29.20;14.10;;;;;;;-128.00;-1.00;-1.00;18484;288;7507099;-33
2023/04/02 00:23:17;;;;;;;26.90;12.40;;;;;;;-128.00;-1.00;-1.00;18474;341;7506497;-33
2023/04/02 00:25:44;;;;;;;26.10;14.30;;;;;;;-128.00;-1.00;-1.00;18880;288;7504173;-36
2023/04/02 00:28:21;;;;;;;24.50;14.00;;;;;;;-128.00;-1.00;-1.00;18489;296;7505108;-36
2023/04/02 00:30:52;;;;;;;28.50;13.70;;;;;;;-128.00;-1.00;-1.00;18473;320;7504778;-33
2023/04/02 00:33:19;;;;;;;24.40;14.00;;;;;;;-128.00;-1.00;-1.00;18483;288;7505886;-33
2023/04/02 00:35:44;;;;;;;22.20;11.60;;;;;;;-128.00;-1.00;-1.00;18478;320;7504491;-35
2023/04/02 00:38:23;;;;;;;29.80;14.10;;;;;;;-128.00;-1.00;-1.00;18472;296;7505946;-35
2023/04/02 00:40:49;;;;;;;38.40;18.00;;;;;;;-128.00;-1.00;-1.00;18505;296;7505757;-35
2023/04/02 00:43:15;;;;;;;30.00;17.10;;;;;;;-128.00;-1.00;-1.00;18480;296;7504915;-36
2023/04/02 00:45:41;;;;;;;38.70;17.80;;;;;;;-128.00;-1.00;-1.00;18478;319;7505667;-34
2023/04/02 00:48:30;;;;;;;35.50;16.50;;;;;;;-128.00;-1.00;-1.00;18500;296;7504419;-36
2023/04/02 00:50:59;;;;;;;27.40;15.00;;;;;;;-128.00;-1.00;-1.00;18464;296;7504887;-36
2023/04/02 00:53:27;;;;;;;26.80;14.10;;;;;;;-128.00;-1.00;-1.00;18492;288;7506850;-33
2023/04/02 00:55:52;;;;;;;24.40;14.10;;;;;;;-128.00;-1.00;-1.00;18466;296;7504103;-33
2023/04/02 00:58:31;;;;;;;27.50;14.60;;;;;;;-128.00;-1.00;-1.00;18860;295;7504398;-36
2023/04/02 01:00:57;;;;;;;21.30;11.30;;;;;;;-128.00;-1.00;-1.00;18463;297;7506874;-34
2023/04/02 01:03:35;;;;;;;25.80;15.90;;;;;;;-128.00;-1.00;-1.00;18455;348;7504749;-35
2023/04/02 01:06:10;;;;;;;30.10;18.90;;;;;;;-128.00;-1.00;-1.00;18480;296;7504159;-33
2023/04/02 01:08:54;;;;;;;36.50;16.90;;;;;;;-128.00;-1.00;-1.00;18473;284;7505092;-36
2023/04/02 01:11:44;;;;;;;34.40;16.50;;;;;;;-128.00;-1.00;-1.00;18474;337;7505073;-36
2023/04/02 01:14:34;;;;;;;12.70;6.90;;;;;;;-128.00;-1.00;-1.00;18460;336;7504830;-36
2023/04/02 01:17:25;;;;;;;29.30;15.50;;;;;;;-128.00;-1.00;-1.00;18467;296;7505037;-35
2023/04/02 01:20:31;;;;;;;14.60;9.30;;;;;;;-128.00;-1.00;-1.00;18453;288;7504704;-33
2023/04/02 01:23:06;;;;;;;25.20;12.20;;;;;;;-128.00;-1.00;-1.00;18493;296;7504785;-35
2023/04/02 01:25:50;;;;;;;20.20;11.50;;;;;;;-128.00;-1.00;-1.00;18476;296;7504718;-33
2023/04/02 01:28:18;;;;;;;21.80;11.80;;;;;;;-128.00;-1.00;-1.00;18477;348;7505876;-36
2023/04/02 01:30:50;;;;;;;20.80;12.90;;;;;;;-128.00;-1.00;-1.00;18495;295;7504043;-33
2023/04/02 01:33:16;;;;;;;30.40;14.70;;;;;;;-128.00;-1.00;-1.00;18491;296;7506469;-36
2023/04/02 01:35:43;;;;;;;23.50;13.30;;;;;;;-128.00;-1.00;-1.00;18498;340;7506157;-35
2023/04/02 01:38:12;;;;;;;22.60;12.10;;;;;;;-128.00;-1.00;-1.00;18501;295;7506342;-35
2023/04/02 01:40:43;;;;;;;28.90;15.70;;;;;;;-128.00;-1.00;-1.00;18452;321;7504783;-32
2023/04/02 01:43:31;;;;;;;33.40;15.90;;;;;;;-128.00;-1.00;-1.00;18478;296;7506135;-35
2023/04/02 01:45:57;;;;;;;28.20;12.70;;;;;;;-128.00;-1.00;-1.00;18466;295;7506043;-34
2023/04/02 01:48:26;;;;;;;25.50;14.70;;;;;;;-128.00;-1.00;-1.00;18488;295;7504184;-33
2023/04/02 01:50:53;;;;;;;32.10;16.00;;;;;;;-128.00;-1.00;-1.00;18469;311;7505408;-32
2023/04/02 01:53:20;;;;;;;26.30;14.20;;;;;;;-128.00;-1.00;-1.00;18466;288;7504282;-36
2023/04/02 01:55:48;;;;;;;31.70;15.40;;;;;;;-128.00;-1.00;-1.00;18479;288;7506666;-33
2023/04/02 01:58:17;;;;;;;28.90;16.50;;;;;;;-128.00;-1.00;-1.00;18489;288;7507216;-35
2023/04/02 02:00:51;;;;;;;38.00;16.00;;;;;;;-128.00;-1.00;-1.00;18473;296;7504786;-35
2023/04/02 02:03:18;;;;;;;31.30;15.80;;;;;;;-128.00;-1.00;-1.00;18481;321;7505124;-32
2023/04/02 02:05:43;;;;;;;21.80;13.60;;;;;;;-128.00;-1.00;-1.00;18484;296;7506003;-32
2023/04/02 02:08:33;;;;;;;24.20;14.20;;;;;;;-128.00;-1.00;-1.00;18487;296;7504526;-35
2023/04/02 02:10:59;;;;;;;26.50;14.00;;;;;;;-128.00;-1.00;-1.00;18459;297;7504322;-35
2023/04/02 02:13:25;;;;;;;22.40;12.40;;;;;;;-128.00;-1.00;-1.00;18464;296;7504557;-33
2023/04/02 02:15:51;;;;;;;20.50;12.30;;;;;;;-128.00;-1.00;-1.00;18496;296;7506191;-35
2023/04/02 02:18:22;;;;;;;20.00;12.10;;;;;;;-128.00;-1.00;-1.00;18477;288;7504576;-36
2023/04/02 02:20:48;;;;;;;20.90;11.20;;;;;;;-128.00;-1.00;-1.00;18489;297;7504360;-35
2023/04/02 02:23:14;;;;;;;17.10;11.50;;;;;;;-128.00;-1.00;-1.00;18473;284;7505975;-35
2023/04/02 02:25:40;;;;;;;15.50;9.20;;;;;;;-128.00;-1.00;-1.00;18475;347;7506920;-37
2023/04/02 02:28:15;;;;;;;19.30;8.20;;;;;;;-128.00;-1.00;-1.00;18497;288;7504457;-35
2023/04/02 02:30:52;;;;;;;24.10;11.70;;;;;;;-128.00;-1.00;-1.00;18477;296;7504854;-35
2023/04/02 02:33:27;;;;;;;20.90;8.80;;;;;;;-128.00;-1.00;-1.00;18483;296;7505831;-35
2023/04/02 02:36:05;;;;;;;12.60;8.50;;;;;;;-128.00;-1.00;-1.00;18452;298;7504727;-35
2023/04/02 02:38:58;;;;;;;23.10;12.10;;;;;;;-128.00;-1.00;-1.00;18487;288;7505053;-32
2023/04/02 02:41:40;;;;;;;18.10;10.90;;;;;;;-128.00;-1.00;-1.00;18482;296;7504854;-32
2023/04/02 02:44:25;;;;;;;24.30;10.10;;;;;;;-128.00;-1.00;-1.00;18484;288;7504611;-32
2023/04/02 02:46:53;;;;;;;21.20;11.30;;;;;;;-128.00;-1.00;-1.00;18459;331;7506047;-32
2023/04/02 02:49:23;;;;;;;13.20;8.60;;;;;;;-128.00;-1.00;-1.00;18476;288;7504836;-32
2023/04/02 02:52:03;;;;;;;12.10;7.30;;;;;;;-128.00;-1.00;-1.00;18465;298;7505147;-32
2023/04/02 02:54:29;;;;;;;12.20;7.70;;;;;;;-128.00;-1.00;-1.00;18496;347;7504474;-32
2023/04/02 02:56:57;;;;;;;9.20;7.20;;;;;;;-128.00;-1.00;-1.00;18458;297;7504713;-37
2023/04/02 02:59:23;;;;;;;13.20;7.30;;;;;;;-128.00;-1.00;-1.00;18506;296;7504749;-36
2023/04/02 03:01:49;;;;;;;10.70;7.70;;;;;;;-128.00;-1.00;-1.00;18475;288;7505101;-36
2023/04/02 03:04:21;;;;;;;9.00;7.30;;;;;;;-128.00;-1.00;-1.00;18485;295;7504690;-32
2023/04/02 03:06:51;;;;;;;6.00;4.30;;;;;;;-128.00;-1.00;-1.00;18479;347;7504835;-36
2023/04/02 03:09:41;;;;;;;6.10;5.10;;;;;;;-128.00;-1.00;-1.00;18497;296;7504497;-33
2023/04/02 03:12:30;;;;;;;8.10;5.90;;;;;;;-128.00;-1.00;-1.00;18518;296;7505385;-32
2023/04/02 03:15:05;;;;;;;4.70;4.20;;;;;;;-128.00;-1.00;-1.00;18471;288;7504613;-33
2023/04/02 03:17:40;;;;;;;9.80;4.60;;;;;;;-128.00;-1.00;-1.00;18451;345;7504910;-33
2023/04/02 03:20:25;;;;;;;10.20;5.00;;;;;;;-128.00;-1.00;-1.00;18465;295;7506198;-33
2023/04/02 03:22:57;;;;;;;7.90;5.40;;;;;;;-128.00;-1.00;-1.00;18531;307;7506287;-36
2023/04/02 03:25:37;;;;;;;6.40;5.30;;;;;;;-128.00;-1.00;-1.00;18487;296;7505364;-33
2023/04/02 03:28:05;;;;;;;8.50;6.60;;;;;;;-128.00;-1.00;-1.00;18497;296;7505747;-32
2023/04/02 03:31:02;;;;;;;7.70;5.30;;;;;;;-128.00;-1.00;-1.00;18507;296;7507158;-36
2023/04/02 03:33:34;;;;;;;6.50;5.50;;;;;;;-128.00;-1.00;-1.00;18498;288;7504393;-35
2023/04/02 03:36:18;;;;;;;7.70;5.90;;;;;;;-128.00;-1.00;-1.00;18481;347;7504670;-33
2023/04/02 03:38:50;;;;;;;7.90;5.80;;;;;;;-128.00;-1.00;-1.00;18528;295;7504711;-32
2023/04/02 03:41:23;;;;;;;7.70;4.70;;;;;;;-128.00;-1.00;-1.00;18499;295;7504527;-37
2023/04/02 03:43:55;;;;;;;4.30;3.20;;;;;;;-128.00;-1.00;-1.00;18472;295;7504694;-33
2023/04/02 03:46:29;;;;;;;4.90;4.40;;;;;;;-128.00;-1.00;-1.00;18503;288;7504526;-36
2023/04/02 03:48:57;;;;;;;3.80;3.40;;;;;;;-128.00;-1.00;-1.00;18525;295;7504309;-33
2023/04/02 03:51:31;;;;;;;7.00;5.00;;;;;;;-128.00;-1.00;-1.00;18476;288;7505944;-36
2023/04/02 03:53:57;;;;;;;5.50;2.90;;;;;;;-128.00;-1.00;-1.00;18492;288;7504495;-37
2023/04/02 03:56:38;;;;;;;6.50;5.30;;;;;;;-128.00;-1.00;-1.00;18506;295;7504344;-33
2023/04/02 03:59:19;;;;;;;3.60;3.30;;;;;;;-128.00;-1.00;-1.00;18490;288;7505969;-37
2023/04/02 04:01:54;;;;;;;4.70;3.90;;;;;;;-128.00;-1.00;-1.00;18512;295;7504839;-36
2023/04/02 04:04:20;;;;;;;7.50;5.30;;;;;;;-128.00;-1.00;-1.00;18493;295;7504666;-34
2023/04/02 04:06:48;;;;;;;3.60;3.30;;;;;;;-128.00;-1.00;-1.00;18507;295;7504789;-33
2023/04/02 04:09:31;;;;;;;7.40;4.80;;;;;;;-128.00;-1.00;-1.00;18520;288;7504687;-33
2023/04/02 04:12:21;;;;;;;6.40;5.00;;;;;;;-128.00;-1.00;-1.00;18467;347;7504748;-34
2023/04/02 04:14:58;;;;;;;6.00;4.30;;;;;;;-128.00;-1.00;-1.00;18482;296;7504525;-33
2023/04/02 04:17:33;;;;;;;7.00;5.20;;;;;;;-128.00;-1.00;-1.00;18517;347;7504810;-33
2023/04/02 04:20:13;;;;;;;7.60;5.20;;;;;;;-128.00;-1.00;-1.00;18505;296;7504599;-37
2023/04/02 04:22:39;;;;;;;8.40;6.60;;;;;;;-128.00;-1.00;-1.00;18490;296;7504848;-37
2023/04/02 04:25:06;;;;;;;7.40;5.20;;;;;;;-128.00;-1.00;-1.00;18480;297;7505555;-37
2023/04/02 04:27:42;;;;;;;5.30;3.90;;;;;;;-128.00;-1.00;-1.00;18476;304;7504933;-35
2023/04/02 04:30:27;;;;;;;5.80;4.10;;;;;;;-128.00;-1.00;-1.00;18511;296;7506443;-34
2023/04/02 04:33:00;;;;;;;6.30;3.90;;;;;;;-128.00;-1.00;-1.00;18483;284;7506086;-37
2023/04/02 05:14:51;;;;;;;14.60;9.20;;;;;;;-102.33;19.20;19759.38;19582;288;8044978;-35
2023/04/02 05:17:22;;;;;;;9.70;6.70;;;;;;;-128.00;-1.00;-1.00;18124;297;7505562;-34
2023/04/02 05:20:08;;;;;;;9.70;6.50;;;;;;;-128.00;-1.00;-1.00;18478;296;7506075;-34
2023/04/02 05:22:47;;;;;;;11.30;8.10;;;;;;;-128.00;-1.00;-1.00;18460;342;7504994;-37
2023/04/02 05:25:22;;;;;;;8.50;6.20;;;;;;;-128.00;-1.00;-1.00;18462;297;7504893;-36
2023/04/02 05:27:53;;;;;;;8.80;6.80;;;;;;;-128.00;-1.00;-1.00;18462;341;7505284;-35
2023/04/02 05:30:51;;;;;;;9.50;6.40;;;;;;;-128.00;-1.00;-1.00;18451;313;7504444;-34
2023/04/02 05:33:26;;;;;;;8.60;6.70;;;;;;;-128.00;-1.00;-1.00;18475;316;7505062;-35
2023/04/02 05:35:56;;;;;;;13.30;6.90;;;;;;;-128.00;-1.00;-1.00;18437;299;7504143;-37
2023/04/02 05:38:26;;;;;;;7.30;6.30;;;;;;;-128.00;-1.00;-1.00;18457;349;7504404;-34
2023/04/02 05:41:06;;;;;;;10.80;7.20;;;;;;;-128.00;-1.00;-1.00;18463;349;7506240;-37
2023/04/02 05:43:33;;;;;;;13.80;6.40;;;;;;;-128.00;-1.00;-1.00;18468;337;7504276;-37
2023/04/02 05:46:01;;;;;;;7.80;6.50;;;;;;;-128.00;-1.00;-1.00;18487;296;7505243;-34
2023/04/02 05:48:39;;;;;;;7.40;6.60;;;;;;;-128.00;-1.00;-1.00;18465;342;7504205;-36
2023/04/02 05:51:08;;;;;;;8.50;6.50;;;;;;;-128.00;-1.00;-1.00;18469;300;7504965;-37
2023/04/02 05:53:36;;;;;;;6.80;6.10;;;;;;;-128.00;-1.00;-1.00;18461;296;7505580;-32
2023/04/02 05:56:15;;;;;;;4.70;3.50;;;;;;;-128.00;-1.00;-1.00;18449;297;7507923;-35
2023/04/02 05:58:55;;;;;;;10.40;7.30;;;;;;;-128.00;-1.00;-1.00;18484;289;7505810;-34
2023/04/02 06:01:28;;;;;;;9.70;8.70;;;;;;;-128.00;-1.00;-1.00;18465;345;7504238;-33
2023/04/02 06:04:08;;;;;;;9.40;8.20;;;;;;;-128.00;-1.00;-1.00;18479;296;7504955;-34
2023/04/02 06:06:51;;;;;;;12.00;7.40;;;;;;;-128.00;-1.00;-1.00;18463;296;7505337;-36
2023/04/02 06:09:41;;;;;;;7.20;6.30;;;;;;;-128.00;-1.00;-1.00;18500;296;7504611;-33
2023/04/02 06:12:30;;;;;;;11.20;5.40;;;;;;;-128.00;-1.00;-1.00;18492;289;7504999;-33
2023/04/02 06:14:56;;;;;;;6.50;5.00;;;;;;;-128.00;-1.00;-1.00;18464;297;7506248;-33
2023/04/02 06:17:22;;;;;;;12.40;7.10;;;;;;;-128.00;-1.00;-1.00;18469;298;7505984;-35
2023/04/02 06:19:50;;;;;;;11.00;7.70;;;;;;;-128.00;-1.00;-1.00;18448;297;7505560;-35
2023/04/02 06:22:24;;;;;;;10.60;7.40;;;;;;;-128.00;-1.00;-1.00;18483;297;7504221;-34
2023/04/02 06:24:57;;;;;;;11.00;7.30;;;;;;;-128.00;-1.00;-1.00;18482;297;7504148;-33
2023/04/02 06:27:23;;;;;;;9.00;6.70;;;;;;;-128.00;-1.00;-1.00;18474;297;7505010;-36
2023/04/02 06:29:51;;;;;;;8.50;7.30;;;;;;;-128.00;-1.00;-1.00;18468;342;7504624;-33
2023/04/02 06:32:17;;;;;;;10.30;7.70;;;;;;;-128.00;-1.00;-1.00;18459;297;7504150;-36
2023/04/02 06:34:43;;;;;;;9.70;6.70;;;;;;;-128.00;-1.00;-1.00;18458;297;7504453;-36
2023/04/02 06:37:16;;;;;;;7.10;6.30;;;;;;;-128.00;-1.00;-1.00;18488;297;7505020;-36
2023/04/02 06:39:41;;;;;;;11.40;8.10;;;;;;;-128.00;-1.00;-1.00;18462;289;7505955;-37
2023/04/02 06:42:13;;;;;;;12.80;10.20;;;;;;;-128.00;-1.00;-1.00;18842;309;7504393;-37
2023/04/02 06:44:39;;;;;;;10.00;8.00;;;;;;;-128.00;-1.00;-1.00;18446;289;7504610;-35
2023/04/02 06:47:10;;;;;;;12.70;8.60;;;;;;;-128.00;-1.00;-1.00;18462;297;7505623;-35
2023/04/02 06:49:43;;;;;;;11.30;6.90;;;;;;;-128.00;-1.00;-1.00;18466;297;7506266;-37
2023/04/02 06:52:16;;;;;;;10.30;8.70;;;;;;;-128.00;-1.00;-1.00;18486;297;7505827;-36
2023/04/02 06:54:42;;;;;;;12.30;9.40;;;;;;;-128.00;-1.00;-1.00;18445;297;7506066;-36
2023/04/02 06:57:08;;;;;;;15.10;10.30;;;;;;;-128.00;-1.00;-1.00;18448;297;7504702;-34
2023/04/02 06:59:34;;;;;;;18.00;8.70;;;;;;;-128.00;-1.00;-1.00;18463;297;7504618;-33
2023/04/02 07:02:05;;;;;;;6.30;3.50;;;;;;;-128.00;-1.00;-1.00;18442;298;7506006;-33
2023/04/02 07:04:31;;;;;;;10.20;7.60;;;;;;;-128.00;-1.00;-1.00;18447;297;7504855;-37
2023/04/02 07:06:56;;;;;;;11.70;10.30;;;;;;;-128.00;-1.00;-1.00;18464;346;7504647;-36
2023/04/02 07:09:22;;;;;;;13.30;10.60;;;;;;;-128.00;-1.00;-1.00;18497;297;7506417;-33
2023/04/02 07:11:48;;;;;;;12.50;9.30;;;;;;;-128.00;-1.00;-1.00;18438;288;7506360;-32
2023/04/02 07:14:13;;;;;;;12.90;9.30;;;;;;;-128.00;-1.00;-1.00;18462;297;7505038;-33
2023/04/02 07:16:40;;;;;;;13.70;9.30;;;;;;;-128.00;-1.00;-1.00;18478;337;7504338;-33
2023/04/02 07:19:06;;;;;;;12.20;7.30;;;;;;;-128.00;-1.00;-1.00;18440;297;7504718;-36
2023/04/02 07:21:31;;;;;;;9.80;7.20;;;;;;;-128.00;-1.00;-1.00;18464;341;7505686;-33
2023/04/02 07:23:57;;;;;;;6.30;4.40;;;;;;;-128.00;-1.00;-1.00;18479;297;7504893;-37
2023/04/02 07:26:26;;;;;;;8.00;6.20;;;;;;;-128.00;-1.00;-1.00;18841;299;7505593;-34
2023/04/02 07:28:52;;;;;;;13.50;6.90;;;;;;;-128.00;-1.00;-1.00;18455;332;7504455;-35
2023/04/02 07:31:20;;;;;;;7.30;6.20;;;;;;;-128.00;-1.00;-1.00;18448;341;7505080;-35
2023/04/02 07:33:46;;;;;;;5.50;4.30;;;;;;;-128.00;-1.00;-1.00;18454;297;7504970;-33
2023/04/02 07:36:14;;;;;;;6.80;6.20;;;;;;;-128.00;-1.00;-1.00;18458;297;7504663;-35
2023/04/02 07:38:40;;;;;;;5.40;4.80;;;;;;;-128.00;-1.00;-1.00;18498;297;7505077;-35
2023/04/02 07:41:06;;;;;;;5.30;4.70;;;;;;;-128.00;-1.00;-1.00;18479;297;7505129;-35
2023/04/02 07:43:32;;;;;;;13.00;8.30;;;;;;;-128.00;-1.00;-1.00;18464;297;7506368;-35
2023/04/02 07:45:58;;;;;;;6.90;5.90;;;;;;;-128.00;-1.00;-1.00;18447;297;7504479;-32
2023/04/02 07:48:24;;;;;;;8.70;7.80;;;;;;;-128.00;-1.00;-1.00;18420;297;7504957;-32
2023/04/02 07:50:51;;;;;;;9.00;7.70;;;;;;;-128.00;-1.00;-1.00;18845;320;7504819;-32
2023/04/02 07:53:28;;;;;;;5.90;5.30;;;;;;;-128.00;-1.00;-1.00;18483;297;7504208;-33
2023/04/02 07:55:55;;;;;;;10.20;8.90;;;;;;;-128.00;-1.00;-1.00;18471;297;7505971;-33
2023/04/02 07:58:21;;;;;;;12.60;8.40;;;;;;;-128.00;-1.00;-1.00;18447;297;7504163;-35
2023/04/02 08:00:47;;;;;;;12.50;10.00;;;;;;;-128.00;-1.00;-1.00;18444;351;7504154;-32
2023/04/02 08:03:13;;;;;;;8.10;7.20;;;;;;;-128.00;-1.00;-1.00;18428;299;7504969;-35
2023/04/02 08:05:41;;;;;;;10.60;8.10;;;;;;;-128.00;-1.00;-1.00;18457;297;7505976;-35
2023/04/02 08:08:08;;;;;;;12.10;9.40;;;;;;;-128.00;-1.00;-1.00;18452;320;7505947;-32
2023/04/02 08:10:33;;;;;;;10.40;8.50;;;;;;;-128.00;-1.00;-1.00;18452;297;7504453;-35
2023/04/02 08:12:59;;;;;;;9.90;7.20;;;;;;;-128.00;-1.00;-1.00;18461;337;7505152;-32
2023/04/02 08:15:25;;;;;;;8.20;7.40;;;;;;;-128.00;-1.00;-1.00;18495;297;7504503;-32
2023/04/02 08:17:52;;;;;;;12.50;8.90;;;;;;;-128.00;-1.00;-1.00;18467;297;7504428;-32
2023/04/02 08:20:19;;;;;;;13.00;7.70;;;;;;;-128.00;-1.00;-1.00;18460;297;7506203;-35
2023/04/02 08:22:45;;;;;;;9.20;6.80;;;;;;;-128.00;-1.00;-1.00;18447;341;7504983;-35
2023/04/02 08:25:11;;;;;;;6.90;6.20;;;;;;;-128.00;-1.00;-1.00;18450;308;7505127;-35
2023/04/02 08:27:37;;;;;;;9.50;5.50;;;;;;;-128.00;-1.00;-1.00;18488;297;7504555;-35
2023/04/02 08:30:03;;;;;;;7.20;5.60;;;;;;;-128.00;-1.00;-1.00;18459;297;7504474;-32
2023/04/02 08:32:29;;;;;;;6.50;5.50;;;;;;;-128.00;-1.00;-1.00;18435;297;7504363;-36
2023/04/02 08:34:55;;;;;;;8.20;7.20;;;;;;;-128.00;-1.00;-1.00;18876;297;7504116;-34
2023/04/02 08:37:22;;;;;;;8.10;7.00;;;;;;;-128.00;-1.00;-1.00;18856;297;7504662;-33
2023/04/02 08:39:48;;;;;;;6.90;6.30;;;;;;;-128.00;-1.00;-1.00;18870;297;7505139;-35
2023/04/02 08:42:31;;;;;;;8.10;7.10;;;;;;;-128.00;-1.00;-1.00;18861;297;7504190;-35
2023/04/02 08:45:17;;;;;;;;;;;;;;;-128.00;-1.00;-1.00;18454;297;7504257;-33
2023/04/02 08:47:46;;;;;;;7.20;5.90;;;;;;;-128.00;-1.00;-1.00;18452;297;7505989;-36
2023/04/02 08:50:26;;;;;;;10.20;6.60;;;;;;;-128.00;-1.00;-1.00;18460;297;7505114;-35
2023/04/02 08:52:51;;;;;;;6.70;6.00;;;;;;;-128.00;-1.00;-1.00;18463;285;7504262;-32
2023/04/02 08:55:25;;;;;;;8.00;7.20;;;;;;;-128.00;-1.00;-1.00;18483;297;7504599;-36
2023/04/02 08:58:00;;;;;;;9.30;7.80;;;;;;;-128.00;-1.00;-1.00;18460;297;7504632;-36
2023/04/02 09:00:46;;;;;;;18.20;9.30;;;;;;;-128.00;-1.00;-1.00;18472;297;7506580;-36
2023/04/02 09:03:16;;;;;;;13.70;6.90;;;;;;;-128.00;-1.00;-1.00;18498;297;7507038;-35
2023/04/02 09:05:44;;;;;;;10.60;9.00;;;;;;;-128.00;-1.00;-1.00;18459;297;7504443;-35
2023/04/02 09:08:23;;;;;;;15.40;7.90;;;;;;;-128.00;-1.00;-1.00;18475;297;7505969;-33
2023/04/02 09:10:58;;;;;;;12.40;8.30;;;;;;;-128.00;-1.00;-1.00;18473;297;7505301;-34
2023/04/02 09:13:25;;;;;;;12.60;8.80;;;;;;;-128.00;-1.00;-1.00;18473;297;7506221;-34
2023/04/02 09:15:55;;;;;;;17.60;9.40;;;;;;;-128.00;-1.00;-1.00;18465;297;7506377;-34
2023/04/02 09:18:21;;;;;;;11.50;7.70;;;;;;;-128.00;-1.00;-1.00;18509;305;7505116;-34
2023/04/02 09:20:48;;;;;;;12.20;8.90;;;;;;;-128.00;-1.00;-1.00;18876;297;7505088;-35
2023/04/02 09:23:17;;;;;;;11.50;7.90;;;;;;;-128.00;-1.00;-1.00;18466;297;7505322;-33
2023/04/02 09:25:45;;;;;;;9.80;6.70;;;;;;;-128.00;-1.00;-1.00;18466;297;7504531;-35
2023/04/02 09:28:10;;;;;;;9.00;5.50;;;;;;;-128.00;-1.00;-1.00;18459;297;7504648;-35
2023/04/02 09:31:08;;;;;;;7.90;6.50;;;;;;;-128.00;-1.00;-1.00;18472;297;7504628;-33
2023/04/02 09:33:42;;;;;;;5.20;4.70;;;;;;;-128.00;-1.00;-1.00;18461;297;7504517;-33
2023/04/02 09:36:32;;;;;;;9.40;7.00;;;;;;;-128.00;-1.00;-1.00;18446;297;7504995;-33
2023/04/02 09:39:05;;;;;;;8.20;7.40;;;;;;;-128.00;-1.00;-1.00;18488;297;7506268;-35
2023/04/02 09:41:33;;;;;;;12.30;6.00;;;;;;;-128.00;-1.00;-1.00;18472;297;7504926;-36
2023/04/02 09:44:23;;;;;;;10.50;6.80;;;;;;;-128.00;-1.00;-1.00;18452;297;7504831;-35
2023/04/02 09:46:55;;;;;;;8.70;4.00;;;;;;;-128.00;-1.00;-1.00;18455;297;7505153;-36
2023/04/02 09:49:23;;;;;;;5.40;4.40;;;;;;;-128.00;-1.00;-1.00;18466;298;7506188;-36
2023/04/02 09:52:07;;;;;;;5.80;5.20;;;;;;;-128.00;-1.00;-1.00;18464;321;7504240;-32
2023/04/02 09:54:40;;;;;;;7.90;5.30;;;;;;;-128.00;-1.00;-1.00;18461;338;7505758;-35
2023/04/02 09:57:22;;;;;;;6.60;6.00;;;;;;;-128.00;-1.00;-1.00;18473;285;7504688;-32
2023/04/02 10:00:10;;;;;;;6.10;5.40;;;;;;;-128.00;-1.00;-1.00;18461;297;7505587;-35
2023/04/02 10:02:36;;;;;;;6.10;5.40;;;;;;;-128.00;-1.00;-1.00;18457;297;7504919;-36
2023/04/02 10:05:03;;;;;;;9.40;7.20;;;;;;;-128.00;-1.00;-1.00;18476;297;7506448;-35
2023/04/02 10:07:38;;;;;;;10.50;7.20;;;;;;;-128.00;-1.00;-1.00;18475;297;7506190;-35
2023/04/02 10:10:36;;;;;;;8.20;6.80;;;;;;;-128.00;-1.00;-1.00;18468;297;7505377;-32
2023/04/02 10:13:15;;;;;;;6.60;5.50;;;;;;;-128.00;-1.00;-1.00;18475;332;7505323;-35
2023/04/02 10:15:46;;;;;;;10.40;6.80;;;;;;;-128.00;-1.00;-1.00;18478;297;7504850;-32
2023/04/02 10:18:20;;;;;;;9.60;7.00;;;;;;;-128.00;-1.00;-1.00;18461;297;7505189;-35
2023/04/02 10:20:46;;;;;;;6.10;5.50;;;;;;;-128.00;-1.00;-1.00;18478;337;7504694;-32
2023/04/02 10:23:15;;;;;;;7.30;6.50;;;;;;;-128.00;-1.00;-1.00;18872;297;7504932;-35
2023/04/02 10:25:53;;;;;;;7.50;6.20;;;;;;;-128.00;-1.00;-1.00;18442;341;7504213;-36
2023/04/02 10:28:37;;;;;;;6.00;5.50;;;;;;;-128.00;-1.00;-1.00;18476;297;7504808;-32
2023/04/02 10:31:18;;;;;;;8.00;6.70;;;;;;;-128.00;-1.00;-1.00;18508;297;7504455;-36
2023/04/02 10:33:48;;;;;;;5.70;5.00;;;;;;;-128.00;-1.00;-1.00;18463;297;7504287;-33
2023/04/02 10:36:38;;;;;;;10.10;7.90;;;;;;;-128.00;-1.00;-1.00;18460;297;7506282;-35
2023/04/02 10:39:07;;;;;;;14.10;4.70;;;;;;;-128.00;-1.00;-1.00;18447;341;7504857;-32
2023/04/02 10:41:49;;;;;;;7.20;5.70;;;;;;;-128.00;-1.00;-1.00;18434;298;7505663;-35
2023/04/02 10:44:30;;;;;;;6.20;5.20;;;;;;;-128.00;-1.00;-1.00;18419;287;7504885;-35
2023/04/02 10:47:16;;;;;;;10.00;5.50;;;;;;;-128.00;-1.00;-1.00;18463;297;7504581;-32
2023/04/02 10:49:52;;;;;;;7.40;5.40;;;;;;;-128.00;-1.00;-1.00;18448;299;7504135;-32
2023/04/02 10:52:35;;;;;;;8.50;5.60;;;;;;;-128.00;-1.00;-1.00;18478;297;7504131;-35
2023/04/02 10:55:03;;;;;;;7.50;6.10;;;;;;;-128.00;-1.00;-1.00;18469;297;7506211;-32
2023/04/02 10:57:40;;;;;;;6.40;5.80;;;;;;;-128.00;-1.00;-1.00;18446;297;7504652;-35
2023/04/02 11:00:30;;;;;;;9.10;7.80;;;;;;;-128.00;-1.00;-1.00;18483;305;7505685;-35
2023/04/02 11:03:07;;;;;;;6.50;5.50;;;;;;;-128.00;-1.00;-1.00;18494;297;7506442;-31
2023/04/02 11:47:14;;;;;;;14.70;9.50;;;;;;;-101.88;19.20;19868.47;19561;295;8045600;-32
2023/04/02 11:50:00;;;;;;;10.90;9.20;;;;;;;-128.00;-1.00;-1.00;18089;296;7506039;-34
2023/04/02 11:52:28;;;;;;;15.10;8.80;;;;;;;-128.00;-1.00;-1.00;18477;284;7504604;-31
2023/04/02 11:55:03;;;;;;;6.70;6.10;;;;;;;-128.00;-1.00;-1.00;18471;300;7504507;-34
2023/04/02 11:57:52;;;;;;;5.10;4.50;;;;;;;-128.00;-1.00;-1.00;18477;294;7506648;-34
2023/04/02 12:00:33;;;;;;;2.30;2.10;;;;;;;-128.00;-1.00;-1.00;18489;347;7506153;-32
2023/04/02 12:03:14;;;;;;;7.40;6.50;;;;;;;-128.00;-1.00;-1.00;18491;294;7504820;-35
2023/04/02 12:05:42;;;;;;;6.50;5.50;;;;;;;-128.00;-1.00;-1.00;18498;294;7504647;-31
2023/04/02 12:08:23;;;;;;;5.80;2.40;;;;;;;-128.00;-1.00;-1.00;18476;319;7504833;-33
2023/04/02 12:10:59;;;;;;;12.10;7.00;;;;;;;-128.00;-1.00;-1.00;18442;294;7504755;-35
2023/04/02 12:13:48;;;;;;;8.60;6.70;;;;;;;-128.00;-1.00;-1.00;18484;294;7504367;-32
2023/04/02 12:16:14;;;;;;;7.70;5.70;;;;;;;-128.00;-1.00;-1.00;18495;296;7504353;-35
2023/04/02 12:18:45;;;;;;;7.90;4.40;;;;;;;-128.00;-1.00;-1.00;18499;296;7504800;-32
2023/04/02 12:21:16;;;;;;;5.30;4.30;;;;;;;-128.00;-1.00;-1.00;18468;294;7503959;-31
2023/04/02 12:23:44;;;;;;;3.40;3.00;;;;;;;-128.00;-1.00;-1.00;18490;295;7504695;-31
2023/04/02 12:26:24;;;;;;;7.30;5.80;;;;;;;-128.00;-1.00;-1.00;18529;294;7506869;-34
2023/04/02 12:28:50;;;;;;;8.80;6.90;;;;;;;-128.00;-1.00;-1.00;18465;302;7506718;-32
2023/04/02 12:31:17;;;;;;;7.60;5.70;;;;;;;-128.00;-1.00;-1.00;18878;339;7505811;-35
2023/04/02 12:33:43;;;;;;;6.30;5.70;;;;;;;-128.00;-1.00;-1.00;18475;296;7504605;-34
2023/04/02 12:36:18;;;;;;;7.60;6.20;;;;;;;-128.00;-1.00;-1.00;18470;338;7504340;-31
2023/04/02 12:38:51;;;;;;;7.70;5.20;;;;;;;-128.00;-1.00;-1.00;18466;295;7504579;-31
2023/04/02 12:41:23;;;;;;;6.30;5.70;;;;;;;-128.00;-1.00;-1.00;18466;296;7505920;-34
2023/04/02 12:44:02;;;;;;;8.60;5.80;;;;;;;-128.00;-1.00;-1.00;18461;296;7504513;-34
2023/04/02 12:46:29;;;;;;;8.60;6.30;;;;;;;-128.00;-1.00;-1.00;18475;289;7506298;-32
2023/04/02 12:49:01;;;;;;;8.10;6.00;;;;;;;-128.00;-1.00;-1.00;18468;287;7504415;-32
2023/04/02 12:51:27;;;;;;;7.40;6.30;;;;;;;-128.00;-1.00;-1.00;18460;295;7506199;-34
2023/04/02 12:53:53;;;;;;;7.80;4.60;;;;;;;-128.00;-1.00;-1.00;18890;295;7505072;-34
2023/04/02 12:56:21;;;;;;;6.80;5.60;;;;;;;-128.00;-1.00;-1.00;18873;287;7504448;-35
2023/04/02 12:58:59;;;;;;;9.10;6.80;;;;;;;-128.00;-1.00;-1.00;18482;295;7505076;-35
2023/04/02 13:01:27;;;;;;;6.30;5.70;;;;;;;-128.00;-1.00;-1.00;18468;318;7504330;-31
2023/04/02 13:04:05;;;;;;;7.10;6.40;;;;;;;-128.00;-1.00;-1.00;18478;287;7505844;-31
2023/04/02 13:06:32;;;;;;;10.60;6.00;;;;;;;-128.00;-1.00;-1.00;18472;295;7506162;-34
2023/04/02 13:08:58;;;;;;;3.40;2.10;;;;;;;-128.00;-1.00;-1.00;18468;287;7504340;-31
2023/04/02 13:11:39;;;;;;;5.50;5.00;;;;;;;-128.00;-1.00;-1.00;18475;297;7505612;-31
2023/04/02 13:14:17;;;;;;;5.30;3.60;;;;;;;-128.00;-1.00;-1.00;18447;295;7504076;-31